Willow River, Canada
Current Conditions -  °F | °C
As of 6:00 PM on Monday 24 Nov 2014 (Local Time) from CYXS Reporting Station
Few Clouds Few Clouds  
Wind Chill: 25°   Ceiling: Unl
Heat Index: 32°   Visibility: 9mi
Dew Point: 30°   Wind: 8mph
Humidity: 93%   Direction: 200°SSW
Pressure: 29.84"   Gusts: NA
Location:  54.07°N, 122.47°W
Report Text: CYXS 250200Z AUTO 20007KT 9SM FEW004 M00/M01 A2984 RMK SLP137
Loading
Personal Weather Stations






























Interactive Weather Map New forecast layout! Learn more

10-Day Weather Forecast

Advertisements
Track Severe Weather on mobile